Time;durP1;ratioP1;P1;durP2;ratioP2;P2;SDS_P1;SDS_P2;PMS_P1;PMS_P2;Temp;Humidity;BMP_temperature;BMP_pressure;BME280_temperature;BME280_humidity;BME280_pressure;Samples;Min_cycle;Max_cycle;Signal;HPM_P1;HPM_P2
2021/04/02 00:00:58;;;;;;;4.15;1.20;;;6.00;74.40;;;;;;2087563;28;20025;-84
2021/04/02 00:01:59;;;;;;;3.65;1.40;;;6.00;74.40;;;;;;2088440;28;20017;-83
2021/04/02 00:03:01;;;;;;;3.53;1.35;;;6.00;74.40;;;;;;2086952;28;20373;-84
2021/04/02 00:04:02;;;;;;;4.15;1.20;;;6.00;74.40;;;;;;2073546;28;20080;-83
2021/04/02 00:05:03;;;;;;;5.20;1.23;;;6.00;74.40;;;;;;2063271;28;20476;-83
2021/04/02 00:06:06;;;;;;;3.30;1.15;;;6.00;74.40;;;;;;2072307;28;20045;-83
2021/04/02 00:07:07;;;;;;;3.92;1.10;;;6.00;74.40;;;;;;2080986;28;20483;-83
2021/04/02 00:08:08;;;;;;;2.78;1.08;;;6.00;74.50;;;;;;2072677;28;20088;-83
2021/04/02 00:09:11;;;;;;;3.10;1.10;;;5.90;74.50;;;;;;2065352;28;20417;-83
2021/04/02 00:10:16;;;;;;;5.13;1.08;;;5.90;74.60;;;;;;2073508;28;20124;-83
2021/04/02 00:11:17;;;;;;;3.22;1.10;;;5.90;74.60;;;;;;2088615;28;20036;-83
2021/04/02 00:12:17;;;;;;;3.95;1.52;;;5.90;74.60;;;;;;2072729;28;20116;-83
2021/04/02 00:13:23;;;;;;;4.82;1.17;;;5.80;74.60;;;;;;2072906;28;20496;-83
2021/04/02 00:14:23;;;;;;;3.55;1.35;;;5.90;74.70;;;;;;2073263;28;20026;-83
2021/04/02 00:15:24;;;;;;;3.60;1.35;;;5.80;74.70;;;;;;2088274;28;20139;-83
2021/04/02 00:16:24;;;;;;;3.40;1.05;;;5.80;74.80;;;;;;2072670;28;20109;-83
2021/04/02 00:17:25;;;;;;;2.53;1.30;;;5.80;74.90;;;;;;2072886;28;20543;-84
2021/04/02 00:18:28;;;;;;;3.30;1.17;;;5.70;74.80;;;;;;2063288;28;20160;-84
2021/04/02 00:19:29;;;;;;;4.50;1.30;;;5.80;75.00;;;;;;2065372;28;20042;-83
2021/04/02 00:20:30;;;;;;;6.40;1.70;;;5.70;75.00;;;;;;2065853;28;20116;-83
2021/04/02 00:21:30;;;;;;;4.20;1.50;;;5.70;75.10;;;;;;2072039;28;20083;-83
2021/04/02 00:22:31;;;;;;;4.60;1.42;;;5.60;75.10;;;;;;2072265;28;20061;-83
2021/04/02 00:23:33;;;;;;;4.35;1.40;;;5.60;75.20;;;;;;2062985;28;20633;-83
2021/04/02 00:24:34;;;;;;;4.22;1.20;;;5.60;75.30;;;;;;2080232;28;20025;-83
2021/04/02 00:25:37;;;;;;;7.07;1.33;;;5.60;75.40;;;;;;2072440;28;20034;-82
2021/04/02 00:26:38;;;;;;;4.03;1.30;;;5.60;75.50;;;;;;2062173;28;20046;-83
2021/04/02 00:27:39;;;;;;;4.50;1.50;;;5.50;75.50;;;;;;2072746;28;20496;-83
2021/04/02 00:28:41;;;;;;;5.70;1.63;;;5.50;75.60;;;;;;2089097;28;20029;-83
2021/04/02 00:29:41;;;;;;;4.05;1.40;;;5.50;75.60;;;;;;2081190;28;20026;-83
2021/04/02 00:30:43;;;;;;;6.82;1.60;;;5.50;75.70;;;;;;2067574;28;20113;-83
2021/04/02 00:31:43;;;;;;;3.45;1.30;;;5.50;75.70;;;;;;2064940;28;20045;-83
2021/04/02 00:32:45;;;;;;;3.60;1.70;;;5.40;75.70;;;;;;2070942;28;20028;-84
2021/04/02 00:33:46;;;;;;;2.50;1.10;;;5.40;75.80;;;;;;2080912;28;20064;-84
2021/04/02 00:34:47;;;;;;;5.75;1.90;;;5.40;75.90;;;;;;2072347;28;20084;-85
2021/04/02 00:35:48;;;;;;;4.32;1.52;;;5.40;75.90;;;;;;2070929;28;20065;-84
2021/04/02 00:36:48;;;;;;;5.40;1.50;;;5.40;76.00;;;;;;2089155;28;20052;-84
2021/04/02 00:37:49;;;;;;;3.97;1.20;;;5.40;76.60;;;;;;2084711;28;20079;-84
2021/04/02 00:38:50;;;;;;;5.05;1.50;;;5.40;76.20;;;;;;2080636;28;20030;-83
2021/04/02 00:39:50;;;;;;;5.22;1.50;;;5.30;76.10;;;;;;2080133;28;20077;-85
2021/04/02 00:40:58;;;;;;;5.20;1.70;;;5.30;76.20;;;;;;2072507;28;20167;-84
2021/04/02 00:41:59;;;;;;;3.55;1.50;;;5.30;76.30;;;;;;2072714;28;20529;-84
2021/04/02 00:43:00;;;;;;;4.25;1.30;;;5.30;76.30;;;;;;2081057;28;20030;-85
2021/04/02 00:44:00;;;;;;;2.95;1.30;;;5.30;76.40;;;;;;2085474;28;20032;-84
2021/04/02 00:45:01;;;;;;;4.18;1.50;;;5.20;76.60;;;;;;2072647;28;20038;-84
2021/04/02 00:46:03;;;;;;;5.03;1.30;;;5.20;76.50;;;;;;2072752;28;20026;-84
2021/04/02 00:47:04;;;;;;;5.10;1.60;;;5.20;76.60;;;;;;2083556;28;20029;-84
2021/04/02 00:48:06;;;;;;;5.63;1.30;;;5.20;76.70;;;;;;2064520;28;20041;-84
2021/04/02 00:49:07;;;;;;;5.93;1.65;;;5.20;76.80;;;;;;2072001;28;20018;-84
2021/04/02 00:50:29;;;;;;;5.68;1.60;;;5.20;76.80;;;;;;2083616;28;20037;-84
2021/04/02 00:51:30;;;;;;;4.53;1.70;;;5.10;76.90;;;;;;2066696;28;20036;-84
2021/04/02 00:52:31;;;;;;;5.25;1.90;;;5.10;76.90;;;;;;2088789;28;20021;-83
2021/04/02 00:53:34;;;;;;;4.80;1.58;;;5.00;77.00;;;;;;2072785;28;20054;-84
2021/04/02 00:54:34;;;;;;;6.13;1.77;;;5.00;77.00;;;;;;2081093;28;20030;-84
2021/04/02 00:55:39;;;;;;;5.53;1.80;;;5.00;77.00;;;;;;2080432;28;20076;-84
2021/04/02 00:56:40;;;;;;;6.18;1.88;;;5.00;77.80;;;;;;2071241;28;20033;-84
2021/04/02 00:57:41;;;;;;;5.13;1.55;;;4.90;77.10;;;;;;2080755;28;20075;-84
2021/04/02 00:58:42;;;;;;;2.65;1.48;;;4.90;77.20;;;;;;2072634;28;20072;-84
2021/04/02 00:59:43;;;;;;;4.88;1.63;;;4.90;77.30;;;;;;2072845;28;20558;-84
2021/04/02 01:00:44;;;;;;;5.70;1.60;;;4.90;77.40;;;;;;2079388;28;20072;-84
2021/04/02 01:01:45;;;;;;;4.80;1.50;;;4.90;77.40;;;;;;2087464;28;20526;-84
2021/04/02 01:02:46;;;;;;;4.35;1.67;;;4.90;77.50;;;;;;2074526;28;20022;-84
2021/04/02 01:03:48;;;;;;;7.32;1.70;;;4.90;77.50;;;;;;2072746;28;20468;-84
2021/04/02 01:04:49;;;;;;;4.78;1.50;;;4.90;77.60;;;;;;2072685;28;20061;-84
2021/04/02 01:05:53;;;;;;;3.47;1.40;;;4.80;77.60;;;;;;2074492;28;20025;-84
2021/04/02 01:06:53;;;;;;;4.05;1.48;;;4.80;77.60;;;;;;2088379;28;20060;-84
2021/04/02 01:08:00;;;;;;;4.68;1.60;;;4.80;77.60;;;;;;2080457;28;20447;-85
2021/04/02 01:09:02;;;;;;;5.30;1.73;;;4.80;77.70;;;;;;2073439;28;20030;-84
2021/04/02 01:10:08;;;;;;;4.40;1.60;;;4.80;77.70;;;;;;2080969;28;20038;-84
2021/04/02 01:11:12;;;;;;;5.25;1.67;;;4.80;77.80;;;;;;2077612;28;20075;-83
2021/04/02 01:12:13;;;;;;;4.60;1.80;;;4.70;77.80;;;;;;2080903;28;20025;-84
2021/04/02 01:13:18;;;;;;;4.60;1.50;;;4.70;77.80;;;;;;2080851;28;20388;-84
2021/04/02 01:14:19;;;;;;;5.22;1.50;;;4.70;77.80;;;;;;2081353;28;20483;-84
2021/04/02 01:15:41;;;;;;;4.90;1.60;;;4.70;77.80;;;;;;2079282;28;20056;-84
2021/04/02 01:16:44;;;;;;;3.35;1.50;;;4.70;77.80;;;;;;2083035;28;20028;-84
2021/04/02 01:17:48;;;;;;;4.25;1.52;;;4.70;77.80;;;;;;2083852;28;20068;-83
2021/04/02 01:19:23;;;;;;;6.55;1.70;;;4.60;77.80;;;;;;2072998;28;20041;-84
2021/04/02 01:20:29;;;;;;;4.43;1.50;;;4.70;78.00;;;;;;2080928;28;20033;-84
2021/04/02 01:21:48;;;;;;;8.13;2.15;;;4.60;78.00;;;;;;2088513;28;20029;-84
2021/04/02 01:22:51;;;;;;;7.45;1.95;;;4.60;78.00;;;;;;2077050;28;20100;-84
2021/04/02 01:24:00;;;;;;;6.20;1.75;;;4.50;78.10;;;;;;2080665;28;20535;-84
2021/04/02 01:25:12;;;;;;;4.30;1.73;;;4.50;78.20;;;;;;2079129;28;20033;-84
2021/04/02 01:26:27;;;;;;;6.18;1.80;;;4.50;78.20;;;;;;2080032;28;20124;-83
2021/04/02 01:27:51;;;;;;;5.88;1.50;;;4.50;78.30;;;;;;2074267;28;20040;-83
2021/04/02 01:28:59;;;;;;;4.95;1.48;;;4.40;78.20;;;;;;2082686;28;20040;-83
2021/04/02 01:30:05;;;;;;;4.53;1.60;;;4.40;78.20;;;;;;2081693;28;20044;-83
2021/04/02 01:31:07;;;;;;;3.92;1.50;;;4.40;78.20;;;;;;2076698;28;20638;-84
2021/04/02 01:32:13;;;;;;;3.33;1.40;;;4.40;78.20;;;;;;2081432;28;20025;-83
2021/04/02 01:33:16;;;;;;;3.90;1.35;;;4.40;78.30;;;;;;2082565;28;20597;-83
2021/04/02 01:34:22;;;;;;;6.20;1.52;;;4.40;79.00;;;;;;2097174;28;20016;-83
2021/04/02 01:35:37;;;;;;;6.50;1.60;;;4.40;78.60;;;;;;2089724;28;20075;-83
2021/04/02 01:36:41;;;;;;;3.15;1.38;;;4.30;78.60;;;;;;2076985;28;20491;-83
2021/04/02 01:37:48;;;;;;;5.18;1.67;;;4.30;78.60;;;;;;2080039;28;20480;-83
2021/04/02 01:38:50;;;;;;;4.65;1.77;;;4.30;78.60;;;;;;2083396;28;20032;-83
2021/04/02 01:39:52;;;;;;;5.70;1.80;;;4.40;78.70;;;;;;2081014;28;20144;-83
2021/04/02 01:40:57;;;;;;;7.05;1.83;;;4.30;78.70;;;;;;2077166;28;20116;-83
2021/04/02 01:42:00;;;;;;;5.95;1.35;;;4.30;78.80;;;;;;2081592;28;20406;-83
2021/04/02 01:43:09;;;;;;;5.30;1.63;;;4.30;78.90;;;;;;2089885;28;20017;-84
2021/04/02 01:44:10;;;;;;;4.15;1.70;;;4.30;78.90;;;;;;2090390;28;20036;-83
2021/04/02 01:45:15;;;;;;;5.47;1.48;;;4.30;78.90;;;;;;2073674;28;20033;-83
2021/04/02 01:46:17;;;;;;;4.55;1.90;;;4.30;78.90;;;;;;2075262;28;20022;-83
2021/04/02 01:47:19;;;;;;;5.65;1.88;;;4.20;78.90;;;;;;2082017;28;20088;-83
2021/04/02 01:48:21;;;;;;;5.53;1.40;;;4.20;79.00;;;;;;2090477;28;20130;-83
2021/04/02 01:49:23;;;;;;;4.47;1.60;;;4.20;79.00;;;;;;2097983;28;20391;-83
2021/04/02 01:50:25;;;;;;;3.97;1.23;;;4.30;79.00;;;;;;2074693;28;20040;-84
2021/04/02 01:51:26;;;;;;;4.07;1.40;;;4.20;78.90;;;;;;2065373;28;20033;-83
2021/04/02 01:52:28;;;;;;;4.57;1.65;;;4.20;79.50;;;;;;2064861;28;20030;-84
2021/04/02 01:53:33;;;;;;;5.00;1.55;;;4.30;79.00;;;;;;2065914;28;20177;-83
2021/04/02 01:54:36;;;;;;;3.58;1.40;;;4.30;79.10;;;;;;2071081;28;20072;-84
2021/04/02 01:55:38;;;;;;;4.30;1.50;;;4.20;79.10;;;;;;2081582;28;20032;-84
2021/04/02 01:56:40;;;;;;;4.18;1.60;;;4.20;79.10;;;;;;2082052;28;20084;-84
2021/04/02 01:57:42;;;;;;;8.38;1.70;;;4.30;79.20;;;;;;2082389;28;20117;-83
2021/04/02 01:58:45;;;;;;;5.00;1.63;;;4.20;79.20;;;;;;2073957;28;20121;-84
2021/04/02 01:59:47;;;;;;;2.85;1.48;;;4.20;79.20;;;;;;2074172;28;20120;-84
2021/04/02 02:00:54;;;;;;;2.95;1.27;;;4.20;79.20;;;;;;2078551;28;20755;-84
2021/04/02 02:01:57;;;;;;;4.43;1.70;;;4.20;79.20;;;;;;2089459;28;20115;-84
2021/04/02 02:03:00;;;;;;;5.68;1.45;;;4.20;79.20;;;;;;2090131;28;20017;-84
2021/04/02 02:04:02;;;;;;;4.07;1.33;;;4.20;79.20;;;;;;2081803;28;20022;-84
2021/04/02 02:05:06;;;;;;;4.35;1.10;;;4.20;79.20;;;;;;2089441;28;20031;-84
2021/04/02 02:06:09;;;;;;;3.90;1.30;;;4.20;79.20;;;;;;2084649;28;20083;-84
2021/04/02 02:07:10;;;;;;;4.85;1.35;;;4.20;79.20;;;;;;2065625;28;20065;-83
2021/04/02 02:08:13;;;;;;;4.38;1.50;;;4.20;79.20;;;;;;2065957;28;20409;-84
2021/04/02 02:09:19;;;;;;;5.95;1.58;;;4.20;79.30;;;;;;2080472;28;20037;-84
2021/04/02 02:10:21;;;;;;;3.92;1.40;;;4.20;79.30;;;;;;2081863;28;20415;-84
2021/04/02 02:11:22;;;;;;;3.92;1.42;;;4.20;79.30;;;;;;2081230;28;20017;-83
2021/04/02 02:12:24;;;;;;;3.97;1.52;;;4.20;79.30;;;;;;2080979;28;20026;-84
2021/04/02 02:13:26;;;;;;;3.65;1.30;;;4.20;79.40;;;;;;2076842;28;20021;-83
2021/04/02 02:14:30;;;;;;;4.57;1.15;;;4.20;79.40;;;;;;2081914;28;20030;-82
2021/04/02 02:15:35;;;;;;;3.13;1.30;;;4.20;79.40;;;;;;2081841;28;20080;-84
2021/04/02 02:16:39;;;;;;;2.83;1.20;;;4.20;79.40;;;;;;2081720;28;20399;-83
2021/04/02 02:17:47;;;;;;;4.28;1.40;;;4.10;79.40;;;;;;2082950;28;20036;-84
2021/04/02 02:19:00;;;;;;;3.88;1.30;;;4.20;79.50;;;;;;2081957;28;20022;-84
2021/04/02 02:20:08;;;;;;;4.25;1.20;;;4.10;79.40;;;;;;2075657;28;20030;-83
2021/04/02 02:21:11;;;;;;;3.67;1.15;;;4.10;79.40;;;;;;2082139;28;20360;-83
2021/04/02 02:22:14;;;;;;;3.88;1.30;;;4.10;79.30;;;;;;2077439;28;20018;-84
2021/04/02 02:23:14;;;;;;;5.07;1.30;;;4.10;79.40;;;;;;2071757;28;20057;-84
2021/04/02 02:24:16;;;;;;;3.13;1.35;;;4.10;79.40;;;;;;2073597;28;20053;-83
2021/04/02 02:25:17;;;;;;;5.13;1.90;;;4.10;79.40;;;;;;2073873;28;20388;-84
2021/04/02 02:26:18;;;;;;;3.45;1.27;;;4.10;79.60;;;;;;2065309;28;20838;-84
2021/04/02 02:27:19;;;;;;;3.50;1.10;;;4.10;79.50;;;;;;2070531;28;20469;-83
2021/04/02 02:28:20;;;;;;;5.85;1.33;;;4.10;79.50;;;;;;2082079;28;20038;-83
2021/04/02 02:29:21;;;;;;;4.38;1.60;;;4.10;79.50;;;;;;2081571;28;20010;-83
2021/04/02 02:30:28;;;;;;;3.58;1.23;;;4.10;79.50;;;;;;2091888;28;20033;-82
2021/04/02 02:31:29;;;;;;;2.08;0.90;;;4.10;79.60;;;;;;2100025;28;20001;-83
2021/04/02 02:32:30;;;;;;;3.85;1.20;;;4.10;79.60;;;;;;2084365;28;20030;-83
2021/04/02 02:33:30;;;;;;;4.28;1.00;;;4.10;79.60;;;;;;2072838;28;20023;-83
2021/04/02 02:34:31;;;;;;;4.28;1.40;;;4.10;79.60;;;;;;2091817;28;20033;-83
2021/04/02 02:35:32;;;;;;;7.43;1.50;;;4.10;79.60;;;;;;2078610;28;20033;-83
2021/04/02 02:36:34;;;;;;;4.28;1.10;;;4.10;79.60;;;;;;2065685;28;20088;-83
2021/04/02 02:37:38;;;;;;;3.30;0.98;;;4.10;79.60;;;;;;2074447;28;20029;-84
2021/04/02 02:38:41;;;;;;;3.13;1.38;;;4.10;79.70;;;;;;2089820;28;20029;-83
2021/04/02 02:39:42;;;;;;;4.55;1.05;;;4.10;79.60;;;;;;2088227;28;20030;-84
2021/04/02 02:40:42;;;;;;;3.60;1.30;;;4.10;79.50;;;;;;2075961;28;20113;-82
2021/04/02 02:41:44;;;;;;;3.88;1.23;;;4.10;79.50;;;;;;2089179;28;20028;-83
2021/04/02 02:42:47;;;;;;;3.83;1.23;;;4.10;79.50;;;;;;2101008;28;20060;-83
2021/04/02 02:43:48;;;;;;;3.17;1.10;;;4.10;79.50;;;;;;2090663;28;20030;-82
2021/04/02 02:44:49;;;;;;;3.80;1.10;;;4.10;79.50;;;;;;2078497;28;20057;-83
2021/04/02 02:45:49;;;;;;;3.20;1.15;;;4.10;79.50;;;;;;2074333;28;20054;-83
2021/04/02 02:46:50;;;;;;;2.83;1.02;;;4.10;79.60;;;;;;2068759;28;20575;-84
2021/04/02 02:47:51;;;;;;;2.63;1.25;;;4.10;79.60;;;;;;2073823;28;20038;-84
2021/04/02 02:48:57;;;;;;;3.20;1.10;;;4.10;79.60;;;;;;2073106;28;20061;-84
2021/04/02 02:49:59;;;;;;;2.80;1.27;;;4.10;79.70;;;;;;2082503;28;20565;-83
2021/04/02 02:51:01;;;;;;;3.58;1.15;;;4.10;79.70;;;;;;2073615;28;20410;-84
2021/04/02 02:52:03;;;;;;;4.30;1.40;;;4.10;79.70;;;;;;2073934;28;20064;-83
2021/04/02 02:53:05;;;;;;;2.78;1.02;;;4.10;79.80;;;;;;2080536;28;20160;-84
2021/04/02 02:54:09;;;;;;;4.45;1.30;;;4.10;79.90;;;;;;2073868;28;20542;-83
2021/04/02 02:55:11;;;;;;;3.50;1.30;;;4.00;79.90;;;;;;2085703;28;20041;-83
2021/04/02 02:56:15;;;;;;;5.47;1.30;;;4.10;79.90;;;;;;2073324;28;20504;-83
2021/04/02 02:57:18;;;;;;;3.50;1.00;;;4.10;79.90;;;;;;2074189;28;20018;-84
2021/04/02 02:58:23;;;;;;;3.70;1.15;;;4.10;79.90;;;;;;2065801;28;20054;-84
2021/04/02 02:59:26;;;;;;;4.63;1.30;;;4.10;79.80;;;;;;2067103;28;20030;-83
2021/04/02 03:00:31;;;;;;;5.93;1.10;;;4.10;79.80;;;;;;2081826;28;20010;-83
2021/04/02 03:01:35;;;;;;;6.82;1.17;;;4.10;79.80;;;;;;2092106;28;20041;-82
2021/04/02 03:02:36;;;;;;;1.67;0.80;;;4.10;79.80;;;;;;2092415;28;20032;-82
2021/04/02 03:03:37;;;;;;;4.35;1.30;;;4.10;79.80;;;;;;2088593;28;20044;-83
2021/04/02 03:04:41;;;;;;;3.78;1.17;;;4.10;79.80;;;;;;2083835;28;20021;-83
2021/04/02 03:05:48;;;;;;;4.82;1.17;;;4.10;79.90;;;;;;2086681;28;20035;-84
2021/04/02 03:06:51;;;;;;;4.93;1.27;;;4.00;79.90;;;;;;2081751;28;20018;-83
2021/04/02 03:07:59;;;;;;;4.35;1.05;;;4.10;80.00;;;;;;2087840;28;20079;-84
2021/04/02 03:09:01;;;;;;;4.10;1.13;;;4.10;80.00;;;;;;2089401;28;20044;-84
2021/04/02 03:10:05;;;;;;;2.17;0.90;;;4.10;80.00;;;;;;2080759;28;20028;-83
2021/04/02 03:11:09;;;;;;;5.60;1.23;;;4.00;80.00;;;;;;2065776;28;20124;-84
2021/04/02 03:12:12;;;;;;;4.03;1.20;;;4.00;80.00;;;;;;2079010;28;20089;-84
2021/04/02 03:13:19;;;;;;;2.55;1.00;;;4.00;80.10;;;;;;2081338;28;20030;-83
2021/04/02 03:14:22;;;;;;;3.08;1.08;;;4.00;80.70;;;;;;2074927;28;20021;-84
2021/04/02 03:15:23;;;;;;;4.63;1.27;;;4.00;80.10;;;;;;2081220;28;20033;-84
2021/04/02 03:16:26;;;;;;;2.65;0.90;;;4.00;80.10;;;;;;2066303;28;20022;-83
2021/04/02 03:17:28;;;;;;;3.88;1.17;;;4.00;80.80;;;;;;2080811;28;20021;-84
2021/04/02 03:18:30;;;;;;;2.53;1.10;;;4.00;80.20;;;;;;2081383;28;20032;-83
2021/04/02 03:19:32;;;;;;;4.38;1.30;;;4.00;80.20;;;;;;2075231;28;20496;-83
2021/04/02 03:20:39;;;;;;;3.53;1.17;;;4.00;80.20;;;;;;2081722;28;20028;-83
2021/04/02 03:21:40;;;;;;;2.65;1.20;;;4.00;80.30;;;;;;2081564;28;20118;-84
2021/04/02 03:22:41;;;;;;;3.63;1.10;;;4.00;80.20;;;;;;2081218;28;20545;-84
2021/04/02 03:23:43;;;;;;;3.38;1.05;;;4.00;80.30;;;;;;2076234;28;20044;-83
2021/04/02 03:24:45;;;;;;;4.30;1.00;;;4.00;80.30;;;;;;2076930;28;20048;-83
2021/04/02 03:25:47;;;;;;;2.90;0.95;;;4.00;80.30;;;;;;2081140;28;20475;-84
2021/04/02 03:26:51;;;;;;;3.67;1.10;;;4.00;80.30;;;;;;2079317;28;20543;-84
2021/04/02 03:27:53;;;;;;;3.60;1.30;;;4.00;80.30;;;;;;2073372;28;20133;-84
2021/04/02 03:28:56;;;;;;;2.53;0.98;;;4.00;80.30;;;;;;2074838;28;20168;-85
2021/04/02 03:29:57;;;;;;;3.45;1.15;;;4.00;81.00;;;;;;2081102;28;20460;-84
2021/04/02 03:30:57;;;;;;;4.60;1.48;;;4.00;80.40;;;;;;2066994;28;20030;-83
2021/04/02 03:32:01;;;;;;;3.53;1.00;;;4.00;81.00;;;;;;2056892;28;20512;-84
2021/04/02 03:33:21;;;;;;;3.53;1.13;;;4.00;80.40;;;;;;2065746;28;20049;-83
2021/04/02 03:34:23;;;;;;;3.08;1.17;;;4.00;80.40;;;;;;2083434;28;20022;-83
2021/04/02 03:35:25;;;;;;;3.75;1.02;;;4.00;80.40;;;;;;2072389;28;20069;-84
2021/04/02 03:36:28;;;;;;;4.63;1.10;;;4.00;80.40;;;;;;2064235;28;20065;-83
2021/04/02 03:37:33;;;;;;;3.25;1.08;;;4.00;80.50;;;;;;2057174;28;20034;-84
2021/04/02 03:38:41;;;;;;;3.45;1.10;;;4.00;80.50;;;;;;2064531;28;20117;-83
2021/04/02 03:39:44;;;;;;;4.68;1.20;;;4.00;80.60;;;;;;2074052;28;20042;-83
2021/04/02 03:40:46;;;;;;;3.20;1.40;;;4.00;80.60;;;;;;2073469;28;20025;-84
2021/04/02 03:41:54;;;;;;;3.22;1.05;;;4.00;80.60;;;;;;2072780;28;20112;-83
2021/04/02 03:42:59;;;;;;;5.53;1.58;;;4.00;80.70;;;;;;2080942;28;20031;-83
2021/04/02 03:44:01;;;;;;;5.10;1.25;;;4.00;80.70;;;;;;2076095;28;20025;-84
2021/04/02 03:45:05;;;;;;;3.40;1.02;;;4.00;80.70;;;;;;2080674;28;20026;-84
2021/04/02 03:46:08;;;;;;;4.40;1.20;;;4.10;80.80;;;;;;2081535;28;20014;-84
2021/04/02 03:47:17;;;;;;;3.22;1.08;;;4.10;80.80;;;;;;2074662;28;20018;-84
2021/04/02 03:48:20;;;;;;;3.28;1.25;;;4.00;80.80;;;;;;2073598;28;20506;-84
2021/04/02 03:49:29;;;;;;;5.05;1.52;;;4.10;80.90;;;;;;2086693;28;20034;-84
2021/04/02 03:50:33;;;;;;;4.07;1.30;;;4.10;80.90;;;;;;2080957;28;20021;-84
2021/04/02 03:51:37;;;;;;;4.50;1.35;;;4.10;80.90;;;;;;2073548;28;20033;-83
2021/04/02 03:52:43;;;;;;;3.08;1.27;;;4.10;80.90;;;;;;2088788;28;20036;-83
2021/04/02 03:53:49;;;;;;;3.72;1.15;;;4.10;81.00;;;;;;2089327;28;20039;-83
2021/04/02 03:54:52;;;;;;;4.43;1.17;;;4.10;81.00;;;;;;2081459;28;20034;-83
2021/04/02 03:55:55;;;;;;;3.35;1.30;;;4.10;81.00;;;;;;2080589;28;20025;-83
2021/04/02 03:56:59;;;;;;;4.72;1.30;;;4.10;81.10;;;;;;2081094;28;20040;-83
2021/04/02 03:58:01;;;;;;;3.75;1.25;;;4.10;81.10;;;;;;2073605;28;20468;-83
2021/04/02 03:59:04;;;;;;;5.10;1.63;;;4.10;81.10;;;;;;2071518;28;20049;-83
2021/04/02 04:00:21;;;;;;;4.30;1.42;;;4.10;81.20;;;;;;2081088;28;20028;-83
2021/04/02 04:01:27;;;;;;;3.80;1.20;;;4.10;81.30;;;;;;2086721;28;20040;-83
2021/04/02 04:02:29;;;;;;;4.45;1.58;;;4.10;81.20;;;;;;2080979;28;20530;-83
2021/04/02 04:03:31;;;;;;;6.35;1.60;;;4.10;81.20;;;;;;2072798;28;20026;-83
2021/04/02 04:04:32;;;;;;;2.28;1.17;;;4.10;81.30;;;;;;2071146;28;20563;-82
2021/04/02 04:05:33;;;;;;;3.20;1.17;;;4.10;81.90;;;;;;2064914;28;20034;-83
2021/04/02 04:06:36;;;;;;;3.15;1.20;;;4.10;81.30;;;;;;2065004;28;20022;-82
2021/04/02 04:07:37;;;;;;;4.38;1.20;;;4.10;81.40;;;;;;2063747;28;20455;-83
2021/04/02 04:08:39;;;;;;;4.13;1.40;;;4.10;81.40;;;;;;2080761;28;20022;-83
2021/04/02 04:09:41;;;;;;;4.78;1.45;;;4.20;81.50;;;;;;2086661;28;20430;-83
2021/04/02 04:10:43;;;;;;;4.03;1.30;;;4.20;81.60;;;;;;2072404;28;20037;-83
2021/04/02 04:11:46;;;;;;;4.47;1.20;;;4.20;81.50;;;;;;2064796;28;20041;-83
2021/04/02 04:12:51;;;;;;;4.25;1.35;;;4.20;81.60;;;;;;2072781;28;20045;-82
2021/04/02 04:13:54;;;;;;;3.58;1.48;;;4.20;81.60;;;;;;2082373;28;20569;-83
2021/04/02 04:14:55;;;;;;;3.47;1.48;;;4.20;81.60;;;;;;2089253;28;20529;-83
2021/04/02 04:15:57;;;;;;;4.13;1.58;;;4.20;81.60;;;;;;2081056;28;20033;-84
2021/04/02 04:17:00;;;;;;;5.45;1.30;;;4.20;81.60;;;;;;2079328;28;20025;-83
2021/04/02 04:18:02;;;;;;;2.85;1.35;;;4.20;81.70;;;;;;2073153;28;20057;-83
2021/04/02 04:19:03;;;;;;;3.63;1.40;;;4.20;81.70;;;;;;2068351;28;20029;-83
2021/04/02 04:20:06;;;;;;;6.03;1.55;;;4.20;81.80;;;;;;2073050;28;20049;-83
2021/04/02 04:21:07;;;;;;;2.78;1.10;;;4.20;81.80;;;;;;2073014;28;20017;-83
2021/04/02 04:22:08;;;;;;;2.88;1.40;;;4.20;81.80;;;;;;2064799;28;20040;-83
2021/04/02 04:23:10;;;;;;;4.07;1.20;;;4.20;81.80;;;;;;2072420;28;20072;-84
2021/04/02 04:24:17;;;;;;;5.55;1.50;;;4.20;81.80;;;;;;2088715;28;20462;-83
2021/04/02 04:25:25;;;;;;;3.67;1.33;;;4.20;81.90;;;;;;2081281;28;20087;-83
2021/04/02 04:26:29;;;;;;;3.70;1.67;;;4.20;81.90;;;;;;2074038;28;20377;-83
2021/04/02 04:27:32;;;;;;;2.50;1.20;;;4.20;81.90;;;;;;2088387;28;20013;-83
2021/04/02 04:28:35;;;;;;;4.28;1.38;;;4.20;81.90;;;;;;2088762;28;20041;-83
2021/04/02 04:29:41;;;;;;;5.68;1.30;;;4.20;82.50;;;;;;2080451;28;20033;-83
2021/04/02 04:30:46;;;;;;;7.40;1.60;;;4.20;82.00;;;;;;2073891;28;20033;-83
2021/04/02 04:31:48;;;;;;;4.90;1.80;;;4.20;82.00;;;;;;2081439;28;20018;-83
2021/04/02 04:32:50;;;;;;;5.22;1.83;;;4.20;82.00;;;;;;2073001;28;20026;-83
2021/04/02 04:33:56;;;;;;;5.63;1.50;;;4.20;82.20;;;;;;2073412;28;20488;-83
2021/04/02 04:34:58;;;;;;;4.75;1.45;;;4.20;82.20;;;;;;2080675;28;20125;-83
2021/04/02 04:36:00;;;;;;;6.68;1.85;;;4.20;82.20;;;;;;2088765;28;20079;-83
2021/04/02 04:37:02;;;;;;;4.70;1.52;;;4.20;82.20;;;;;;2083912;28;20060;-83
2021/04/02 04:38:06;;;;;;;5.22;1.50;;;4.20;82.30;;;;;;2072512;28;20061;-83
2021/04/02 04:39:07;;;;;;;4.75;1.40;;;4.20;82.20;;;;;;2073177;28;20025;-83
2021/04/02 04:40:11;;;;;;;5.18;1.90;;;4.20;82.30;;;;;;2083635;28;20029;-83
2021/04/02 04:41:13;;;;;;;4.28;1.40;;;4.20;82.30;;;;;;2087955;28;20017;-83
2021/04/02 04:42:16;;;;;;;3.95;1.50;;;4.20;82.30;;;;;;2085317;28;20104;-83
2021/04/02 04:43:18;;;;;;;3.63;1.60;;;4.20;82.30;;;;;;2083011;28;20029;-83
2021/04/02 04:44:23;;;;;;;7.82;1.85;;;4.20;82.30;;;;;;2070348;28;20022;-83
2021/04/02 04:45:25;;;;;;;2.25;1.33;;;4.10;82.30;;;;;;2072722;28;20188;-83
2021/04/02 04:46:25;;;;;;;5.63;1.75;;;4.20;82.30;;;;;;2088726;28;20021;-83
2021/04/02 04:47:26;;;;;;;4.63;1.85;;;4.10;82.30;;;;;;2078311;28;20044;-83
2021/04/02 04:48:27;;;;;;;5.15;1.80;;;4.10;82.30;;;;;;2077479;28;20034;-82
2021/04/02 04:49:28;;;;;;;4.05;1.58;;;4.20;82.40;;;;;;2087448;28;20051;-83
2021/04/02 04:50:28;;;;;;;4.18;1.40;;;4.10;82.40;;;;;;2064026;28;20068;-83
2021/04/02 04:51:32;;;;;;;3.85;1.15;;;4.10;82.40;;;;;;2064501;28;20049;-83
2021/04/02 04:52:38;;;;;;;4.07;1.38;;;4.20;82.40;;;;;;2080907;28;20034;-83
2021/04/02 04:53:40;;;;;;;3.28;1.15;;;4.20;82.50;;;;;;2080799;28;20017;-83
2021/04/02 04:54:45;;;;;;;4.22;1.60;;;4.20;82.40;;;;;;2070097;28;20041;-83
2021/04/02 04:55:48;;;;;;;3.95;1.30;;;4.20;82.40;;;;;;2073399;28;20022;-83
2021/04/02 04:56:53;;;;;;;5.13;1.60;;;4.10;82.40;;;;;;2083462;28;20026;-83
2021/04/02 04:57:56;;;;;;;4.88;1.42;;;4.10;82.40;;;;;;2080931;28;20181;-83
2021/04/02 04:59:01;;;;;;;4.28;1.60;;;4.10;82.40;;;;;;2074186;28;20037;-83
2021/04/02 05:00:04;;;;;;;4.13;1.50;;;4.10;82.50;;;;;;2082360;28;20121;-83
2021/04/02 05:01:08;;;;;;;5.70;1.60;;;4.10;82.50;;;;;;2086645;28;20021;-83
2021/04/02 05:02:11;;;;;;;4.30;1.60;;;4.10;82.60;;;;;;2074843;28;20117;-83
2021/04/02 05:03:16;;;;;;;4.82;1.50;;;4.10;82.60;;;;;;2078803;28;20025;-83
2021/04/02 05:04:18;;;;;;;3.97;1.50;;;4.10;82.60;;;;;;2083869;28;20111;-83
2021/04/02 05:05:28;;;;;;;5.15;1.58;;;4.10;82.90;;;;;;2080336;28;20026;-83
2021/04/02 05:06:31;;;;;;;3.53;1.33;;;4.10;82.60;;;;;;2081290;28;20053;-82
2021/04/02 05:07:35;;;;;;;4.18;1.70;;;4.10;82.60;;;;;;2090527;28;20078;-83
2021/04/02 05:08:40;;;;;;;7.00;1.80;;;4.10;82.70;;;;;;2081266;28;20422;-83
2021/04/02 05:09:42;;;;;;;7.35;1.75;;;4.10;82.70;;;;;;2074548;28;20523;-83
2021/04/02 05:10:44;;;;;;;6.15;1.50;;;4.10;82.70;;;;;;2066124;28;20133;-83
2021/04/02 05:11:46;;;;;;;4.60;1.48;;;4.10;82.70;;;;;;2066459;28;20027;-83
2021/04/02 05:12:48;;;;;;;5.40;1.63;;;4.10;82.70;;;;;;2082357;28;20025;-83
2021/04/02 05:13:50;;;;;;;3.50;1.50;;;4.00;82.60;;;;;;2083296;28;20470;-82
2021/04/02 05:14:52;;;;;;;3.35;1.40;;;4.10;83.30;;;;;;2077990;28;20144;-83
2021/04/02 05:15:55;;;;;;;5.38;1.35;;;4.10;82.70;;;;;;2078524;28;20076;-83
2021/04/02 05:16:56;;;;;;;3.58;1.67;;;4.00;82.70;;;;;;2074245;28;20033;-83
2021/04/02 05:17:57;;;;;;;3.97;1.40;;;4.10;82.70;;;;;;2066068;28;20042;-83
2021/04/02 05:19:00;;;;;;;4.63;1.45;;;4.00;82.60;;;;;;2065450;28;20036;-83
2021/04/02 05:20:01;;;;;;;5.63;1.73;;;4.00;82.70;;;;;;2066231;28;20385;-83
2021/04/02 05:21:02;;;;;;;4.68;1.50;;;4.00;83.30;;;;;;2082275;28;20041;-83
2021/04/02 05:22:03;;;;;;;2.95;1.45;;;4.00;82.70;;;;;;2082762;28;20041;-83
2021/04/02 05:23:04;;;;;;;6.03;1.73;;;4.10;82.70;;;;;;2083690;28;20037;-83
2021/04/02 05:24:05;;;;;;;4.47;1.40;;;4.10;83.40;;;;;;2075941;28;20022;-83
2021/04/02 05:25:06;;;;;;;4.50;1.50;;;4.10;82.70;;;;;;2065984;28;20134;-82
2021/04/02 05:26:11;;;;;;;4.90;1.40;;;4.10;82.70;;;;;;2072614;28;20477;-83
2021/04/02 05:27:12;;;;;;;5.38;1.50;;;4.00;83.40;;;;;;2090431;28;20127;-83
2021/04/02 05:28:13;;;;;;;4.50;1.58;;;4.00;82.70;;;;;;2081847;28;20462;-83
2021/04/02 05:29:13;;;;;;;4.80;1.60;;;4.10;82.80;;;;;;2082329;28;20442;-83
2021/04/02 05:30:14;;;;;;;5.15;1.40;;;4.10;82.80;;;;;;2079530;28;20414;-83
2021/04/02 05:31:15;;;;;;;5.38;1.70;;;4.00;82.70;;;;;;2082078;28;20030;-84
2021/04/02 05:32:16;;;;;;;3.20;1.30;;;4.10;82.70;;;;;;2074015;28;20492;-84
2021/04/02 05:33:17;;;;;;;3.30;1.67;;;4.10;82.80;;;;;;2081429;28;20049;-83
2021/04/02 05:34:17;;;;;;;4.32;1.60;;;4.00;82.70;;;;;;2080165;28;20082;-83